createdAt,value
2022-12-06T00:01:18.896Z,99.90
2022-12-06T00:03:47.826Z,99.90
2022-12-06T00:06:20.055Z,99.90
2022-12-06T00:08:47.836Z,99.90
2022-12-06T00:11:17.712Z,99.90
2022-12-06T00:13:44.798Z,99.90
2022-12-06T00:16:15.004Z,99.90
2022-12-06T00:18:43.852Z,99.90
2022-12-06T00:21:20.947Z,99.90
2022-12-06T00:23:54.461Z,99.90
2022-12-06T00:26:22.112Z,99.90
2022-12-06T00:28:51.581Z,99.90
2022-12-06T00:31:20.953Z,99.90
2022-12-06T00:33:48.423Z,99.90
2022-12-06T00:36:17.990Z,99.90
2022-12-06T00:38:45.217Z,99.90
2022-12-06T00:41:14.379Z,99.90
2022-12-06T00:43:41.646Z,99.90
2022-12-06T00:46:10.980Z,99.90
2022-12-06T00:48:37.747Z,99.90
2022-12-06T00:51:05.023Z,99.90
2022-12-06T00:53:31.694Z,99.90
2022-12-06T00:55:58.452Z,99.90
2022-12-06T00:58:25.212Z,99.90
2022-12-06T01:00:52.442Z,99.90
2022-12-06T01:03:20.023Z,99.90
2022-12-06T01:05:49.498Z,99.90
2022-12-06T01:08:17.871Z,99.90
2022-12-06T01:10:54.984Z,99.90
2022-12-06T01:13:21.674Z,99.90
2022-12-06T01:15:48.694Z,99.90
2022-12-06T01:18:15.676Z,99.90
2022-12-06T01:20:42.802Z,99.90
2022-12-06T01:23:09.448Z,99.90
2022-12-06T01:25:36.654Z,99.90
2022-12-06T01:28:04.000Z,99.90
2022-12-06T01:30:30.880Z,99.90
2022-12-06T01:32:57.622Z,1.00
2022-12-06T01:35:24.263Z,1.00
2022-12-06T01:37:50.926Z,1.00
2022-12-06T01:40:17.669Z,1.00
2022-12-06T01:42:44.653Z,1.00
2022-12-06T01:45:11.527Z,1.00
2022-12-06T01:47:42.098Z,1.00
2022-12-06T01:50:14.216Z,1.00
2022-12-06T01:52:59.886Z,1.00
2022-12-06T01:55:30.513Z,1.00
2022-12-06T01:58:00.434Z,1.00
2022-12-06T02:00:27.232Z,1.00
2022-12-06T02:02:57.923Z,1.00
2022-12-06T02:05:25.356Z,1.00
2022-12-06T02:07:53.694Z,1.00
2022-12-06T02:10:21.847Z,1.00
2022-12-06T02:12:52.324Z,1.00
2022-12-06T02:15:24.025Z,1.00
2022-12-06T02:17:58.705Z,1.00
2022-12-06T02:20:36.715Z,1.00
2022-12-06T02:23:37.484Z,1.00
2022-12-06T02:26:45.571Z,1.00
2022-12-06T02:29:33.407Z,1.00
2022-12-06T02:32:12.253Z,1.00
2022-12-06T02:35:20.433Z,1.00
2022-12-06T02:38:00.554Z,1.00
2022-12-06T02:40:38.115Z,1.00
2022-12-06T02:43:20.964Z,1.00
2022-12-06T02:45:53.154Z,1.00
2022-12-06T02:48:22.115Z,1.00
2022-12-06T02:51:06.628Z,1.00
2022-12-06T02:53:37.169Z,1.00
2022-12-06T02:56:04.439Z,1.00
2022-12-06T02:58:37.003Z,1.00
2022-12-06T03:01:10.794Z,1.00
2022-12-06T03:03:45.532Z,1.00
2022-12-06T03:06:30.674Z,1.00
2022-12-06T03:09:25.428Z,1.00
2022-12-06T03:12:12.403Z,1.00
2022-12-06T03:15:01.815Z,1.00
2022-12-06T03:17:48.683Z,1.00
2022-12-06T03:20:27.786Z,1.00
2022-12-06T03:23:06.574Z,1.00
2022-12-06T03:25:36.037Z,1.00
2022-12-06T03:28:05.899Z,1.00
2022-12-06T03:30:34.706Z,1.00
2022-12-06T03:33:02.995Z,1.00
2022-12-06T03:35:34.395Z,1.00
2022-12-06T03:38:18.488Z,1.00
2022-12-06T03:40:49.234Z,1.00
2022-12-06T03:43:16.081Z,1.00
2022-12-06T03:45:59.733Z,1.00
2022-12-06T03:48:35.035Z,1.00
2022-12-06T03:51:08.756Z,1.00
2022-12-06T03:53:35.495Z,1.00
2022-12-06T03:56:02.186Z,1.00
2022-12-06T03:58:28.857Z,1.00
2022-12-06T04:00:55.576Z,1.00
2022-12-06T04:03:22.333Z,1.00
2022-12-06T04:05:49.063Z,1.00
2022-12-06T04:08:15.720Z,1.00
2022-12-06T04:10:42.430Z,1.00
2022-12-06T04:13:09.068Z,1.00
2022-12-06T04:15:39.005Z,1.00
2022-12-06T04:18:16.371Z,1.00
2022-12-06T04:21:14.109Z,1.00
2022-12-06T04:23:42.962Z,1.00
2022-12-06T04:26:12.502Z,1.00
2022-12-06T04:28:58.191Z,1.00
2022-12-06T04:31:44.568Z,1.00
2022-12-06T04:34:30.291Z,1.00
2022-12-06T04:37:16.288Z,1.00
2022-12-06T04:39:43.382Z,1.00
2022-12-06T04:42:29.634Z,1.00
2022-12-06T04:44:57.091Z,1.00
2022-12-06T04:47:24.418Z,1.00
2022-12-06T04:49:51.474Z,1.00
2022-12-06T04:52:18.742Z,1.00
2022-12-06T04:54:45.384Z,1.00
2022-12-06T04:57:13.728Z,1.00
2022-12-06T04:59:42.502Z,1.00
2022-12-06T05:02:13.022Z,1.00
2022-12-06T05:04:40.107Z,1.00
2022-12-06T05:07:07.164Z,1.00
2022-12-06T05:09:33.841Z,1.00
2022-12-06T05:12:00.623Z,1.00
2022-12-06T05:14:27.253Z,1.00
2022-12-06T05:16:53.988Z,1.00
2022-12-06T05:19:20.944Z,1.00
2022-12-06T05:21:47.677Z,1.00
2022-12-06T05:24:14.382Z,1.00
2022-12-06T05:26:41.361Z,1.00
2022-12-06T05:29:08.359Z,1.00
2022-12-06T05:31:35.117Z,1.00
2022-12-06T05:34:01.794Z,1.00
2022-12-06T05:36:28.945Z,99.90
2022-12-06T05:38:56.955Z,99.90
2022-12-06T05:41:24.183Z,99.90
2022-12-06T05:43:51.131Z,99.90
2022-12-06T05:46:17.860Z,99.90
2022-12-06T05:48:44.829Z,99.90
2022-12-06T05:51:11.683Z,99.90
2022-12-06T05:53:38.879Z,99.90
2022-12-06T05:56:10.985Z,99.90
2022-12-06T05:58:38.066Z,99.90
2022-12-06T06:01:08.244Z,99.90
2022-12-06T06:03:35.496Z,99.90
2022-12-06T06:06:03.675Z,99.90
2022-12-06T06:08:30.490Z,99.90
2022-12-06T06:10:57.892Z,99.90
2022-12-06T06:13:24.877Z,99.90
2022-12-06T06:15:51.555Z,99.90
2022-12-06T06:18:19.184Z,99.90
2022-12-06T06:20:53.927Z,99.90
2022-12-06T06:23:21.635Z,99.90
2022-12-06T06:25:48.599Z,99.90
2022-12-06T06:28:15.998Z,99.90
2022-12-06T06:30:43.039Z,99.90
2022-12-06T06:33:09.909Z,99.90
2022-12-06T06:35:36.960Z,99.90
2022-12-06T06:38:04.086Z,99.90
2022-12-06T06:40:31.028Z,99.90
2022-12-06T06:42:57.979Z,99.90
2022-12-06T06:45:28.962Z,99.90
2022-12-06T06:47:55.850Z,99.90
2022-12-06T06:50:22.543Z,99.90
2022-12-06T06:52:52.670Z,99.90
2022-12-06T06:55:20.164Z,99.90
2022-12-06T06:57:47.710Z,99.90
2022-12-06T07:00:15.110Z,99.90
2022-12-06T07:02:42.089Z,99.90
2022-12-06T07:05:09.541Z,99.90
2022-12-06T07:07:36.276Z,99.90
2022-12-06T07:10:03.383Z,99.90
2022-12-06T07:12:30.346Z,99.90
2022-12-06T07:14:56.974Z,99.90
2022-12-06T07:17:24.634Z,99.90
2022-12-06T07:19:51.367Z,99.90
2022-12-06T07:22:18.048Z,99.90
2022-12-06T07:24:50.763Z,99.90
2022-12-06T07:27:18.999Z,99.90
2022-12-06T07:29:45.657Z,99.90
2022-12-06T07:32:12.327Z,99.90
2022-12-06T07:34:39.002Z,99.90
2022-12-06T07:37:06.658Z,99.90
2022-12-06T07:39:33.476Z,99.90
2022-12-06T07:42:18.742Z,99.90
2022-12-06T07:45:05.449Z,99.90
2022-12-06T07:47:40.793Z,99.90
2022-12-06T07:50:21.083Z,99.90
2022-12-06T07:52:49.337Z,99.90
2022-12-06T07:55:17.218Z,99.90
2022-12-06T07:57:44.446Z,99.90
2022-12-06T08:00:14.710Z,99.90
2022-12-06T08:02:41.882Z,99.90
2022-12-06T08:05:09.092Z,99.90
2022-12-06T08:07:36.264Z,99.90
2022-12-06T08:10:04.447Z,99.90
2022-12-06T08:12:32.244Z,99.90
2022-12-06T08:14:59.953Z,99.90
2022-12-06T08:17:27.821Z,99.90
2022-12-06T08:19:54.583Z,99.90
2022-12-06T08:22:21.332Z,99.90
2022-12-06T08:24:48.279Z,99.90
2022-12-06T08:27:15.247Z,99.90
2022-12-06T08:29:41.975Z,99.90
2022-12-06T08:32:08.715Z,99.90
2022-12-06T08:34:35.401Z,99.90
2022-12-06T08:37:03.682Z,99.90
2022-12-06T08:39:30.728Z,99.90
2022-12-06T08:41:58.306Z,99.90
2022-12-06T08:44:29.394Z,99.90
2022-12-06T08:46:57.282Z,99.90
2022-12-06T08:49:25.413Z,99.90
2022-12-06T08:51:52.757Z,99.90
2022-12-06T08:54:22.277Z,99.90
2022-12-06T08:56:49.540Z,99.90
2022-12-06T08:59:16.805Z,99.90
2022-12-06T09:01:44.059Z,99.90
2022-12-06T09:04:11.658Z,99.90
2022-12-06T09:06:43.147Z,99.90
2022-12-06T09:09:11.120Z,99.90
2022-12-06T09:11:39.209Z,99.90
2022-12-06T09:14:08.381Z,76.60
2022-12-06T09:16:35.187Z,99.40
2022-12-06T09:19:01.946Z,98.70
2022-12-06T09:21:33.024Z,84.50
2022-12-06T09:24:00.248Z,60.30
2022-12-06T09:26:27.884Z,46.00
2022-12-06T09:28:56.733Z,55.20
2022-12-06T09:31:23.864Z,43.10
2022-12-06T09:33:51.014Z,51.90
2022-12-06T09:36:23.098Z,54.20
2022-12-06T09:38:55.463Z,43.90
2022-12-06T09:41:50.349Z,53.50
2022-12-06T09:44:39.788Z,52.50
2022-12-06T09:47:21.807Z,40.80
2022-12-06T09:50:26.594Z,36.60
2022-12-06T09:53:14.084Z,6.30
2022-12-06T09:55:47.657Z,2.10
2022-12-06T09:58:40.010Z,9.80
2022-12-06T10:01:09.386Z,14.40
2022-12-06T10:03:45.049Z,3.70
2022-12-06T10:06:18.327Z,1.00
2022-12-06T10:09:08.704Z,1.00
2022-12-06T10:12:09.257Z,1.00
2022-12-06T10:14:57.208Z,1.00
2022-12-06T10:17:43.951Z,1.00
2022-12-06T10:20:40.498Z,1.00
2022-12-06T10:23:13.199Z,1.00
2022-12-06T10:25:55.817Z,1.00
2022-12-06T10:28:34.435Z,1.00
2022-12-06T10:31:15.057Z,1.00
2022-12-06T10:34:09.028Z,1.00
2022-12-06T10:36:43.636Z,1.00
2022-12-06T10:39:38.507Z,1.00
2022-12-06T10:42:13.135Z,1.00
2022-12-06T10:45:30.338Z,1.00
2022-12-06T10:48:00.783Z,1.00
2022-12-06T10:50:32.811Z,1.00
2022-12-06T10:53:06.449Z,1.00
2022-12-06T10:55:43.262Z,1.00
2022-12-06T10:58:19.474Z,1.00
2022-12-06T11:01:06.460Z,1.00
2022-12-06T11:03:57.767Z,1.00
2022-12-06T11:06:32.627Z,1.00
2022-12-06T11:09:22.612Z,1.00
2022-12-06T11:11:50.488Z,1.00
2022-12-06T11:14:38.259Z,1.00
2022-12-06T11:17:14.158Z,1.00
2022-12-06T11:19:47.205Z,1.00
2022-12-06T11:22:38.047Z,1.00
2022-12-06T11:25:25.945Z,1.00
2022-12-06T11:27:58.782Z,1.00
2022-12-06T11:30:25.747Z,1.00
2022-12-06T11:32:52.856Z,1.00
2022-12-06T11:35:23.942Z,1.00
2022-12-06T11:37:58.875Z,1.00
2022-12-06T11:40:33.010Z,1.00
2022-12-06T11:43:02.431Z,1.00
2022-12-06T11:45:33.373Z,1.00
2022-12-06T11:48:05.530Z,1.00
2022-12-06T11:50:35.688Z,1.00
2022-12-06T11:53:06.598Z,1.00
2022-12-06T11:55:42.332Z,1.00
2022-12-06T11:58:18.544Z,1.00
2022-12-06T12:01:14.370Z,1.00
2022-12-06T12:03:47.469Z,1.00
2022-12-06T12:06:24.876Z,1.00
2022-12-06T12:09:01.545Z,1.00
2022-12-06T12:11:34.288Z,1.00
2022-12-06T12:14:17.075Z,1.00
2022-12-06T12:16:48.322Z,1.00
2022-12-06T12:19:30.064Z,1.00
2022-12-06T12:21:59.459Z,1.00
2022-12-06T12:27:38.872Z,1.00
2022-12-06T12:30:33.170Z,1.00
2022-12-06T12:33:06.093Z,1.00
2022-12-06T12:35:33.766Z,1.00
2022-12-06T12:38:26.492Z,1.00
2022-12-06T12:40:53.155Z,1.00
2022-12-06T12:43:31.490Z,1.00
2022-12-06T12:46:17.781Z,1.00
2022-12-06T12:48:46.984Z,1.00
2022-12-06T12:51:28.602Z,1.00
2022-12-06T12:54:18.801Z,1.00
2022-12-06T12:56:45.588Z,1.00
2022-12-06T12:59:15.871Z,1.00
2022-12-06T13:01:48.263Z,1.00
2022-12-06T13:04:37.824Z,1.00
2022-12-06T13:07:11.333Z,1.00
2022-12-06T13:09:37.991Z,1.00
2022-12-06T13:12:16.508Z,1.00
2022-12-06T13:15:04.614Z,1.00
2022-12-06T13:17:34.470Z,1.00
2022-12-06T13:20:02.628Z,1.00
2022-12-06T13:22:34.872Z,1.00
2022-12-06T13:25:06.131Z,1.00
2022-12-06T13:27:45.057Z,1.00
2022-12-06T13:30:23.609Z,1.00
2022-12-06T13:33:20.699Z,1.00
2022-12-06T13:36:09.711Z,1.00
2022-12-06T13:38:38.891Z,1.00
2022-12-06T13:41:07.100Z,1.00
2022-12-06T13:43:38.080Z,1.00
2022-12-06T13:46:09.592Z,1.00
2022-12-06T13:48:48.509Z,1.00
2022-12-06T13:51:37.757Z,1.00
2022-12-06T13:54:07.174Z,1.00
2022-12-06T13:56:33.850Z,1.00
2022-12-06T13:59:03.492Z,1.00
2022-12-06T14:01:58.496Z,1.00
2022-12-06T14:09:42.117Z,1.00
2022-12-06T14:12:23.678Z,1.00
2022-12-06T14:15:01.844Z,1.00
2022-12-06T14:18:03.161Z,1.00
2022-12-06T14:20:33.699Z,1.00
2022-12-06T14:23:00.433Z,1.00
2022-12-06T14:25:29.651Z,1.00
2022-12-06T14:28:11.252Z,1.00
2022-12-06T14:30:39.253Z,1.00
2022-12-06T14:33:19.525Z,1.00
2022-12-06T14:35:53.792Z,1.00
2022-12-06T14:38:27.345Z,1.00
2022-12-06T14:41:13.207Z,1.00
2022-12-06T14:43:42.254Z,1.00
2022-12-06T14:46:13.191Z,1.00
2022-12-06T14:48:58.404Z,1.00
2022-12-06T14:51:27.709Z,1.00
2022-12-06T14:53:54.500Z,1.00
2022-12-06T14:56:35.334Z,1.00
2022-12-06T14:59:10.266Z,1.00
2022-12-06T15:01:50.772Z,1.00
2022-12-06T15:04:36.656Z,1.00
2022-12-06T15:07:03.678Z,1.00
2022-12-06T15:09:31.607Z,1.00
2022-12-06T15:12:41.288Z,1.00
2022-12-06T15:15:35.313Z,1.00
2022-12-06T15:18:32.488Z,1.00
2022-12-06T15:20:59.735Z,1.00
2022-12-06T15:23:38.757Z,1.00
2022-12-06T15:26:08.237Z,1.00
2022-12-06T15:28:35.746Z,1.00
2022-12-06T15:31:13.630Z,1.00
2022-12-06T15:33:40.323Z,1.00
2022-12-06T15:36:07.085Z,1.00
2022-12-06T15:38:33.723Z,1.00
2022-12-06T15:41:00.500Z,1.00
2022-12-06T15:43:29.139Z,1.00
2022-12-06T15:45:56.664Z,1.00
2022-12-06T15:48:23.481Z,1.00
2022-12-06T15:50:50.274Z,1.00
2022-12-06T15:53:20.163Z,1.00
2022-12-06T15:55:46.872Z,1.00
2022-12-06T15:58:13.622Z,1.00
2022-12-06T16:00:40.468Z,1.00
2022-12-06T16:03:08.241Z,1.00
2022-12-06T16:05:35.341Z,1.00
2022-12-06T16:08:02.055Z,1.00
2022-12-06T16:10:48.769Z,1.00
2022-12-06T16:13:21.584Z,1.00
2022-12-06T16:15:48.349Z,1.00
2022-12-06T16:18:15.111Z,1.00
2022-12-06T16:20:42.267Z,1.00
2022-12-06T16:24:11.968Z,1.00
2022-12-06T16:26:28.461Z,1.00
2022-12-06T16:28:55.210Z,1.00
2022-12-06T16:31:21.975Z,1.00
2022-12-06T16:33:48.764Z,1.00
2022-12-06T16:36:22.037Z,1.00
2022-12-06T16:38:54.222Z,1.00
2022-12-06T16:41:26.256Z,1.00
2022-12-06T16:43:53.113Z,1.00
2022-12-06T16:46:30.066Z,1.00
2022-12-06T16:49:15.724Z,1.00
2022-12-06T16:51:46.407Z,1.00
2022-12-06T16:54:13.446Z,1.00
2022-12-06T16:56:41.755Z,1.00
2022-12-06T16:59:13.043Z,1.00
2022-12-06T17:01:47.425Z,1.00
2022-12-06T17:04:14.233Z,1.00
2022-12-06T17:06:40.975Z,1.00
2022-12-06T17:09:07.680Z,1.00
2022-12-06T17:11:54.571Z,1.00
2022-12-06T17:14:25.127Z,1.00
2022-12-06T17:16:52.754Z,1.00
2022-12-06T17:19:22.078Z,1.00
2022-12-06T17:21:50.692Z,1.00
2022-12-06T17:24:18.351Z,1.00
2022-12-06T17:26:45.087Z,1.00
2022-12-06T17:29:12.348Z,1.00
2022-12-06T17:31:39.586Z,1.00
2022-12-06T17:34:07.573Z,1.00
2022-12-06T17:36:35.468Z,1.00
2022-12-06T17:39:04.469Z,1.00
2022-12-06T17:41:52.039Z,1.00
2022-12-06T17:44:19.999Z,1.00
2022-12-06T17:46:46.949Z,1.00
2022-12-06T17:49:19.919Z,1.00
2022-12-06T17:51:46.923Z,1.00
2022-12-06T17:54:14.232Z,1.00
2022-12-06T17:56:45.906Z,1.00
2022-12-06T17:59:21.268Z,1.00
2022-12-06T18:02:19.104Z,1.00
2022-12-06T18:04:35.299Z,1.00
2022-12-06T18:07:01.963Z,1.00
2022-12-06T18:09:28.689Z,1.00
2022-12-06T18:11:56.050Z,1.00
2022-12-06T18:14:22.701Z,1.00
2022-12-06T18:16:49.462Z,1.00
2022-12-06T18:19:18.614Z,1.00
2022-12-06T18:21:45.647Z,1.00
2022-12-06T18:24:25.363Z,1.00
2022-12-06T18:26:53.368Z,1.00
2022-12-06T18:29:22.809Z,1.00
2022-12-06T18:31:50.839Z,1.00
2022-12-06T18:34:17.872Z,1.00
2022-12-06T18:36:44.596Z,1.00
2022-12-06T18:39:16.538Z,1.00
2022-12-06T18:41:46.326Z,1.00
2022-12-06T18:44:13.585Z,1.00
2022-12-06T18:46:42.319Z,1.00
2022-12-06T18:49:11.277Z,1.00
2022-12-06T18:51:38.667Z,1.00
2022-12-06T18:54:06.459Z,1.00
2022-12-06T18:56:34.648Z,1.00
2022-12-06T18:59:03.594Z,1.00
2022-12-06T19:01:32.711Z,1.00
2022-12-06T19:04:03.049Z,1.00
2022-12-06T19:06:35.345Z,1.00
2022-12-06T19:09:10.073Z,1.00
2022-12-06T19:11:42.492Z,1.00
2022-12-06T19:14:10.091Z,1.00
2022-12-06T19:16:42.835Z,1.00
2022-12-06T19:19:19.687Z,1.00
2022-12-06T19:21:47.489Z,1.00
2022-12-06T19:24:17.162Z,1.00
2022-12-06T19:26:44.767Z,1.00
2022-12-06T19:29:12.263Z,1.00
2022-12-06T19:31:39.055Z,10.60
2022-12-06T19:34:05.795Z,25.60
2022-12-06T19:36:32.738Z,34.00
2022-12-06T19:39:02.725Z,40.50
2022-12-06T19:41:30.141Z,45.00
2022-12-06T19:44:15.493Z,55.10
2022-12-06T19:46:44.503Z,56.80
2022-12-06T19:49:12.708Z,81.60
2022-12-06T19:51:42.619Z,86.20
2022-12-06T19:54:10.823Z,86.70
2022-12-06T19:56:39.352Z,94.10
2022-12-06T19:59:11.698Z,99.90
2022-12-06T20:01:40.667Z,99.90
2022-12-06T20:04:07.618Z,99.90
2022-12-06T20:06:35.298Z,99.90
2022-12-06T20:09:02.512Z,99.20
2022-12-06T20:11:48.210Z,92.20
2022-12-06T20:14:17.404Z,99.90
2022-12-06T20:16:44.573Z,99.90
2022-12-06T20:19:12.991Z,99.90
2022-12-06T20:21:39.690Z,99.90
2022-12-06T20:24:06.702Z,99.90
2022-12-06T20:26:33.774Z,93.10
2022-12-06T20:29:01.340Z,91.60
2022-12-06T20:31:30.331Z,94.00
2022-12-06T20:33:59.135Z,99.90
2022-12-06T20:36:26.857Z,99.90
2022-12-06T20:38:55.498Z,99.90
2022-12-06T20:41:24.485Z,99.90
2022-12-06T20:43:51.900Z,99.90
2022-12-06T20:46:21.047Z,80.20
2022-12-06T20:48:47.749Z,87.60
2022-12-06T20:51:17.804Z,66.40
2022-12-06T20:53:47.472Z,69.80
2022-12-06T20:56:18.089Z,78.90
2022-12-06T20:58:46.931Z,80.70
2022-12-06T21:01:17.051Z,90.10
2022-12-06T21:03:43.695Z,93.90
2022-12-06T21:06:11.330Z,91.00
2022-12-06T21:08:38.490Z,79.40
2022-12-06T21:11:23.324Z,78.60
2022-12-06T21:13:56.049Z,85.70
2022-12-06T21:16:26.198Z,99.90
2022-12-06T21:19:05.322Z,99.90
2022-12-06T21:21:37.342Z,99.90
2022-12-06T21:24:07.531Z,99.90
2022-12-06T21:26:35.387Z,99.90
2022-12-06T21:29:02.775Z,99.90
2022-12-06T21:31:35.713Z,99.90
2022-12-06T21:34:02.776Z,99.90
2022-12-06T21:36:30.107Z,99.90
2022-12-06T21:38:57.866Z,99.90
2022-12-06T21:41:27.185Z,87.80
2022-12-06T21:43:54.180Z,44.80
2022-12-06T21:46:23.637Z,65.10
2022-12-06T21:49:00.808Z,86.20
2022-12-06T21:51:30.532Z,53.20
2022-12-06T21:53:57.836Z,28.30
2022-12-06T21:56:27.046Z,1.00
2022-12-06T21:58:54.167Z,1.00
2022-12-06T22:01:24.018Z,1.00
2022-12-06T22:03:57.161Z,1.00
2022-12-06T22:06:23.946Z,1.00
2022-12-06T22:08:59.501Z,1.00
2022-12-06T22:11:26.932Z,8.30
2022-12-06T22:13:53.689Z,10.00
2022-12-06T22:16:20.465Z,11.60
2022-12-06T22:18:47.338Z,41.70
2022-12-06T22:21:17.860Z,31.00
2022-12-06T22:23:44.965Z,32.60
2022-12-06T22:26:14.682Z,38.90
2022-12-06T22:28:41.426Z,18.90
2022-12-06T22:31:16.157Z,20.50
2022-12-06T22:33:43.194Z,12.10
2022-12-06T22:36:10.845Z,7.20
2022-12-06T22:38:37.768Z,2.10
2022-12-06T22:41:05.516Z,4.90
2022-12-06T22:43:32.512Z,1.00
2022-12-06T22:46:11.614Z,1.00
2022-12-06T22:48:39.091Z,1.00
2022-12-06T22:51:17.727Z,1.00
2022-12-06T22:53:46.626Z,1.00
2022-12-06T22:56:14.705Z,1.00
2022-12-06T22:58:41.576Z,1.00
2022-12-06T23:01:17.426Z,1.00
2022-12-06T23:03:48.598Z,1.00
2022-12-06T23:06:16.984Z,1.00
2022-12-06T23:08:44.251Z,1.00
2022-12-06T23:11:12.696Z,1.00
2022-12-06T23:13:39.463Z,1.00
2022-12-06T23:16:10.642Z,1.00
2022-12-06T23:18:37.470Z,1.00
2022-12-06T23:21:16.389Z,1.00
2022-12-06T23:23:47.677Z,1.00
2022-12-06T23:26:19.872Z,1.00
2022-12-06T23:28:47.030Z,1.00
2022-12-06T23:31:18.966Z,1.00
2022-12-06T23:33:46.916Z,1.00
2022-12-06T23:36:20.099Z,1.00
2022-12-06T23:38:46.879Z,1.00
2022-12-06T23:41:18.834Z,1.00
2022-12-06T23:43:45.762Z,1.00
2022-12-06T23:46:21.990Z,1.00
2022-12-06T23:48:49.894Z,1.00
2022-12-06T23:51:22.506Z,1.00
2022-12-06T23:53:56.936Z,1.00
2022-12-06T23:56:25.265Z,1.00
2022-12-06T23:58:52.619Z,1.00
